sensor_id;sensor_type;location;lat;lon;timestamp;temperature;humidity
7648;DHT22;3866;48.020;11.720;2023-03-31T00:01:25;8.10;99.90
7648;DHT22;3866;48.020;11.720;2023-03-31T00:03:54;8.10;99.90
7648;DHT22;3866;48.020;11.720;2023-03-31T00:06:28;8.10;99.90
7648;DHT22;3866;48.020;11.720;2023-03-31T00:08:55;8.10;99.90
7648;DHT22;3866;48.020;11.720;2023-03-31T00:11:27;8.10;99.90
7648;DHT22;3866;48.020;11.720;2023-03-31T00:13:55;8.10;99.90
7648;DHT22;3866;48.020;11.720;2023-03-31T00:16:22;8.20;99.90
7648;DHT22;3866;48.020;11.720;2023-03-31T00:18:49;8.10;99.90
7648;DHT22;3866;48.020;11.720;2023-03-31T00:21:19;8.10;99.90
7648;DHT22;3866;48.020;11.720;2023-03-31T00:23:55;8.10;99.90
7648;DHT22;3866;48.020;11.720;2023-03-31T00:26:22;8.00;99.90
7648;DHT22;3866;48.020;11.720;2023-03-31T00:28:49;8.00;99.90
7648;DHT22;3866;48.020;11.720;2023-03-31T00:31:16;7.90;99.90
7648;DHT22;3866;48.020;11.720;2023-03-31T00:33:43;7.90;99.90
7648;DHT22;3866;48.020;11.720;2023-03-31T00:36:10;7.90;99.90
7648;DHT22;3866;48.020;11.720;2023-03-31T00:38:39;7.80;99.90
7648;DHT22;3866;48.020;11.720;2023-03-31T00:41:10;7.80;99.90
7648;DHT22;3866;48.020;11.720;2023-03-31T00:43:37;7.80;99.90
7648;DHT22;3866;48.020;11.720;2023-03-31T00:46:15;7.90;99.90
7648;DHT22;3866;48.020;11.720;2023-03-31T00:48:47;8.00;99.90
7648;DHT22;3866;48.020;11.720;2023-03-31T00:51:16;8.00;99.90
7648;DHT22;3866;48.020;11.720;2023-03-31T00:53:50;8.00;99.90
7648;DHT22;3866;48.020;11.720;2023-03-31T00:56:20;8.10;99.90
7648;DHT22;3866;48.020;11.720;2023-03-31T00:58:47;8.20;99.90
7648;DHT22;3866;48.020;11.720;2023-03-31T01:01:17;8.20;99.90
7648;DHT22;3866;48.020;11.720;2023-03-31T01:03:44;8.40;99.90
7648;DHT22;3866;48.020;11.720;2023-03-31T01:06:14;8.40;99.90
7648;DHT22;3866;48.020;11.720;2023-03-31T01:08:46;8.50;99.90
7648;DHT22;3866;48.020;11.720;2023-03-31T01:11:16;8.60;99.90
7648;DHT22;3866;48.020;11.720;2023-03-31T01:13:44;8.70;99.90
7648;DHT22;3866;48.020;11.720;2023-03-31T01:16:14;8.60;99.90
7648;DHT22;3866;48.020;11.720;2023-03-31T01:18:42;8.60;99.90
7648;DHT22;3866;48.020;11.720;2023-03-31T01:21:57;8.60;99.90
7648;DHT22;3866;48.020;11.720;2023-03-31T01:24:54;8.70;99.90
7648;DHT22;3866;48.020;11.720;2023-03-31T01:27:41;8.60;99.90
7648;DHT22;3866;48.020;11.720;2023-03-31T01:30:32;8.50;99.90
7648;DHT22;3866;48.020;11.720;2023-03-31T01:33:40;8.60;99.90
7648;DHT22;3866;48.020;11.720;2023-03-31T01:36:35;8.70;99.90
7648;DHT22;3866;48.020;11.720;2023-03-31T01:39:53;8.70;99.90
7648;DHT22;3866;48.020;11.720;2023-03-31T01:42:28;8.60;99.90
7648;DHT22;3866;48.020;11.720;2023-03-31T01:45:02;8.50;99.90
7648;DHT22;3866;48.020;11.720;2023-03-31T01:47:36;8.40;99.90
7648;DHT22;3866;48.020;11.720;2023-03-31T01:50:09;8.30;99.90
7648;DHT22;3866;48.020;11.720;2023-03-31T01:52:40;8.20;99.90
7648;DHT22;3866;48.020;11.720;2023-03-31T01:55:12;8.10;99.90
7648;DHT22;3866;48.020;11.720;2023-03-31T01:57:46;8.00;99.90
7648;DHT22;3866;48.020;11.720;2023-03-31T02:00:17;8.20;99.90
7648;DHT22;3866;48.020;11.720;2023-03-31T02:02:49;8.30;99.90
7648;DHT22;3866;48.020;11.720;2023-03-31T02:05:19;8.20;99.90
7648;DHT22;3866;48.020;11.720;2023-03-31T02:07:53;8.20;99.90
7648;DHT22;3866;48.020;11.720;2023-03-31T02:10:23;8.00;99.90
7648;DHT22;3866;48.020;11.720;2023-03-31T02:12:51;7.80;99.90
7648;DHT22;3866;48.020;11.720;2023-03-31T02:15:21;7.80;99.90
7648;DHT22;3866;48.020;11.720;2023-03-31T02:17:53;7.70;99.90
7648;DHT22;3866;48.020;11.720;2023-03-31T02:20:21;7.70;99.90
7648;DHT22;3866;48.020;11.720;2023-03-31T02:22:52;7.60;99.90
7648;DHT22;3866;48.020;11.720;2023-03-31T02:25:24;7.60;99.90
7648;DHT22;3866;48.020;11.720;2023-03-31T02:27:54;7.50;99.90
7648;DHT22;3866;48.020;11.720;2023-03-31T02:30:21;7.50;99.90
7648;DHT22;3866;48.020;11.720;2023-03-31T02:32:50;7.50;99.90
7648;DHT22;3866;48.020;11.720;2023-03-31T02:35:18;7.60;99.90
7648;DHT22;3866;48.020;11.720;2023-03-31T02:37:47;7.60;99.90
7648;DHT22;3866;48.020;11.720;2023-03-31T02:40:17;7.80;99.90
7648;DHT22;3866;48.020;11.720;2023-03-31T02:42:47;7.80;99.90
7648;DHT22;3866;48.020;11.720;2023-03-31T02:45:37;7.90;99.90
7648;DHT22;3866;48.020;11.720;2023-03-31T02:48:05;7.90;99.90
7648;DHT22;3866;48.020;11.720;2023-03-31T02:50:43;7.90;99.90
7648;DHT22;3866;48.020;11.720;2023-03-31T02:53:20;7.80;99.90
7648;DHT22;3866;48.020;11.720;2023-03-31T02:56:01;7.70;99.90
7648;DHT22;3866;48.020;11.720;2023-03-31T02:58:53;7.70;99.90
7648;DHT22;3866;48.020;11.720;2023-03-31T03:01:43;7.50;99.90
7648;DHT22;3866;48.020;11.720;2023-03-31T03:04:25;7.60;99.90
7648;DHT22;3866;48.020;11.720;2023-03-31T03:07:00;7.60;99.90
7648;DHT22;3866;48.020;11.720;2023-03-31T03:09:35;7.70;99.90
7648;DHT22;3866;48.020;11.720;2023-03-31T03:12:11;7.70;99.90
7648;DHT22;3866;48.020;11.720;2023-03-31T03:14:47;7.80;99.90
7648;DHT22;3866;48.020;11.720;2023-03-31T03:17:20;7.80;99.90
7648;DHT22;3866;48.020;11.720;2023-03-31T03:19:54;8.00;99.90
7648;DHT22;3866;48.020;11.720;2023-03-31T03:22:22;8.00;99.90
7648;DHT22;3866;48.020;11.720;2023-03-31T03:24:49;8.10;99.90
7648;DHT22;3866;48.020;11.720;2023-03-31T03:27:17;8.20;99.90
7648;DHT22;3866;48.020;11.720;2023-03-31T03:29:45;8.10;99.90
7648;DHT22;3866;48.020;11.720;2023-03-31T03:32:12;8.10;99.90
7648;DHT22;3866;48.020;11.720;2023-03-31T03:34:39;8.00;99.90
7648;DHT22;3866;48.020;11.720;2023-03-31T03:37:06;8.00;99.90
7648;DHT22;3866;48.020;11.720;2023-03-31T03:39:33;7.90;99.90
7648;DHT22;3866;48.020;11.720;2023-03-31T03:42:00;7.80;99.90
7648;DHT22;3866;48.020;11.720;2023-03-31T03:44:27;7.80;99.90
7648;DHT22;3866;48.020;11.720;2023-03-31T03:46:55;7.70;99.90
7648;DHT22;3866;48.020;11.720;2023-03-31T03:49:22;7.80;99.90
7648;DHT22;3866;48.020;11.720;2023-03-31T03:51:49;7.70;99.90
7648;DHT22;3866;48.020;11.720;2023-03-31T03:54:16;7.60;99.90
7648;DHT22;3866;48.020;11.720;2023-03-31T03:56:43;7.60;99.90
7648;DHT22;3866;48.020;11.720;2023-03-31T03:59:10;7.60;99.90
7648;DHT22;3866;48.020;11.720;2023-03-31T04:01:37;7.60;99.90
7648;DHT22;3866;48.020;11.720;2023-03-31T04:04:06;7.60;99.90
7648;DHT22;3866;48.020;11.720;2023-03-31T04:06:33;7.70;99.90
7648;DHT22;3866;48.020;11.720;2023-03-31T04:09:00;7.60;99.90
7648;DHT22;3866;48.020;11.720;2023-03-31T04:11:28;7.60;99.90
7648;DHT22;3866;48.020;11.720;2023-03-31T04:13:55;7.60;99.90
7648;DHT22;3866;48.020;11.720;2023-03-31T04:16:22;7.60;99.90
7648;DHT22;3866;48.020;11.720;2023-03-31T04:18:50;7.60;99.90
7648;DHT22;3866;48.020;11.720;2023-03-31T04:21:18;7.60;99.90
7648;DHT22;3866;48.020;11.720;2023-03-31T04:23:49;7.60;99.90
7648;DHT22;3866;48.020;11.720;2023-03-31T04:26:24;7.60;99.90
7648;DHT22;3866;48.020;11.720;2023-03-31T04:28:55;7.50;99.90
7648;DHT22;3866;48.020;11.720;2023-03-31T04:31:25;7.50;99.90
7648;DHT22;3866;48.020;11.720;2023-03-31T04:33:55;7.60;99.90
7648;DHT22;3866;48.020;11.720;2023-03-31T04:36:30;7.60;99.90
7648;DHT22;3866;48.020;11.720;2023-03-31T04:38:57;7.60;99.90
7648;DHT22;3866;48.020;11.720;2023-03-31T04:41:25;7.60;99.90
7648;DHT22;3866;48.020;11.720;2023-03-31T04:43:53;7.50;99.90
7648;DHT22;3866;48.020;11.720;2023-03-31T04:46:20;7.50;99.90
7648;DHT22;3866;48.020;11.720;2023-03-31T04:48:47;7.50;99.90
7648;DHT22;3866;48.020;11.720;2023-03-31T04:51:14;7.50;99.90
7648;DHT22;3866;48.020;11.720;2023-03-31T04:53:42;7.50;99.90
7648;DHT22;3866;48.020;11.720;2023-03-31T04:56:09;7.50;99.90
7648;DHT22;3866;48.020;11.720;2023-03-31T04:58:36;7.50;99.90
7648;DHT22;3866;48.020;11.720;2023-03-31T05:01:04;7.50;99.90
7648;DHT22;3866;48.020;11.720;2023-03-31T05:03:32;7.50;99.90
7648;DHT22;3866;48.020;11.720;2023-03-31T05:05:59;7.60;99.90
7648;DHT22;3866;48.020;11.720;2023-03-31T05:08:26;7.60;99.90
7648;DHT22;3866;48.020;11.720;2023-03-31T05:10:54;7.60;99.90
7648;DHT22;3866;48.020;11.720;2023-03-31T05:13:21;7.70;99.90
7648;DHT22;3866;48.020;11.720;2023-03-31T05:15:48;7.70;99.90
7648;DHT22;3866;48.020;11.720;2023-03-31T05:18:16;7.70;99.90
7648;DHT22;3866;48.020;11.720;2023-03-31T05:20:43;7.50;99.90
7648;DHT22;3866;48.020;11.720;2023-03-31T05:23:10;7.50;99.90
7648;DHT22;3866;48.020;11.720;2023-03-31T05:25:37;7.40;99.90
7648;DHT22;3866;48.020;11.720;2023-03-31T05:28:05;7.30;99.90
7648;DHT22;3866;48.020;11.720;2023-03-31T05:30:32;7.20;99.90
7648;DHT22;3866;48.020;11.720;2023-03-31T05:32:59;7.30;99.90
7648;DHT22;3866;48.020;11.720;2023-03-31T05:35:26;7.40;99.90
7648;DHT22;3866;48.020;11.720;2023-03-31T05:37:54;7.30;99.90
7648;DHT22;3866;48.020;11.720;2023-03-31T05:40:21;7.30;99.90
7648;DHT22;3866;48.020;11.720;2023-03-31T05:42:48;7.40;99.90
7648;DHT22;3866;48.020;11.720;2023-03-31T05:45:16;7.50;99.90
7648;DHT22;3866;48.020;11.720;2023-03-31T05:47:43;7.40;99.90
7648;DHT22;3866;48.020;11.720;2023-03-31T05:50:10;7.30;99.90
7648;DHT22;3866;48.020;11.720;2023-03-31T05:52:37;7.30;99.90
7648;DHT22;3866;48.020;11.720;2023-03-31T05:55:05;7.30;99.90
7648;DHT22;3866;48.020;11.720;2023-03-31T05:57:32;7.40;99.90
7648;DHT22;3866;48.020;11.720;2023-03-31T05:59:59;7.50;99.90
7648;DHT22;3866;48.020;11.720;2023-03-31T06:02:28;7.50;99.90
7648;DHT22;3866;48.020;11.720;2023-03-31T06:04:54;7.80;99.90
7648;DHT22;3866;48.020;11.720;2023-03-31T06:07:23;8.00;99.90
7648;DHT22;3866;48.020;11.720;2023-03-31T06:09:50;8.10;99.90
7648;DHT22;3866;48.020;11.720;2023-03-31T06:12:17;8.10;99.90
7648;DHT22;3866;48.020;11.720;2023-03-31T06:14:44;8.30;99.90
7648;DHT22;3866;48.020;11.720;2023-03-31T06:17:11;8.50;99.90
7648;DHT22;3866;48.020;11.720;2023-03-31T06:19:39;8.50;99.90
7648;DHT22;3866;48.020;11.720;2023-03-31T06:22:06;8.50;99.90
7648;DHT22;3866;48.020;11.720;2023-03-31T06:24:33;8.40;99.90
7648;DHT22;3866;48.020;11.720;2023-03-31T06:27:00;8.20;99.90
7648;DHT22;3866;48.020;11.720;2023-03-31T06:29:28;8.10;99.90
7648;DHT22;3866;48.020;11.720;2023-03-31T06:31:55;8.10;99.90
7648;DHT22;3866;48.020;11.720;2023-03-31T06:34:22;8.20;99.90
7648;DHT22;3866;48.020;11.720;2023-03-31T06:36:50;8.10;99.90
7648;DHT22;3866;48.020;11.720;2023-03-31T06:39:17;8.10;99.90
7648;DHT22;3866;48.020;11.720;2023-03-31T06:41:44;8.20;99.90
7648;DHT22;3866;48.020;11.720;2023-03-31T06:44:11;8.30;99.90
7648;DHT22;3866;48.020;11.720;2023-03-31T06:46:41;8.30;99.90
7648;DHT22;3866;48.020;11.720;2023-03-31T06:49:08;8.30;99.90
7648;DHT22;3866;48.020;11.720;2023-03-31T06:51:34;8.50;99.90
7648;DHT22;3866;48.020;11.720;2023-03-31T06:54:03;9.10;99.90
7648;DHT22;3866;48.020;11.720;2023-03-31T06:56:30;9.60;99.90
7648;DHT22;3866;48.020;11.720;2023-03-31T06:58:57;10.20;99.90
7648;DHT22;3866;48.020;11.720;2023-03-31T07:01:24;10.80;99.90
7648;DHT22;3866;48.020;11.720;2023-03-31T07:03:51;10.50;99.90
7648;DHT22;3866;48.020;11.720;2023-03-31T07:06:18;10.00;99.90
7648;DHT22;3866;48.020;11.720;2023-03-31T07:08:45;10.20;99.90
7648;DHT22;3866;48.020;11.720;2023-03-31T07:11:14;10.10;99.90
7648;DHT22;3866;48.020;11.720;2023-03-31T07:13:41;9.90;99.90
7648;DHT22;3866;48.020;11.720;2023-03-31T07:16:08;9.80;99.90
7648;DHT22;3866;48.020;11.720;2023-03-31T07:18:38;9.20;99.90
7648;DHT22;3866;48.020;11.720;2023-03-31T07:21:06;9.00;99.90
7648;DHT22;3866;48.020;11.720;2023-03-31T07:23:34;8.90;99.90
7648;DHT22;3866;48.020;11.720;2023-03-31T07:26:01;8.90;99.90
7648;DHT22;3866;48.020;11.720;2023-03-31T07:28:29;8.80;99.90
7648;DHT22;3866;48.020;11.720;2023-03-31T07:30:56;8.80;99.90
7648;DHT22;3866;48.020;11.720;2023-03-31T07:33:23;8.70;99.90
7648;DHT22;3866;48.020;11.720;2023-03-31T07:35:50;8.60;99.90
7648;DHT22;3866;48.020;11.720;2023-03-31T07:38:17;8.70;99.90
7648;DHT22;3866;48.020;11.720;2023-03-31T07:40:44;8.70;99.90
7648;DHT22;3866;48.020;11.720;2023-03-31T07:43:12;8.70;99.90
7648;DHT22;3866;48.020;11.720;2023-03-31T07:45:40;8.60;99.90
7648;DHT22;3866;48.020;11.720;2023-03-31T07:48:07;8.70;99.90
7648;DHT22;3866;48.020;11.720;2023-03-31T07:50:34;8.80;99.90
7648;DHT22;3866;48.020;11.720;2023-03-31T07:53:01;8.70;99.90
7648;DHT22;3866;48.020;11.720;2023-03-31T07:55:28;8.70;99.90
7648;DHT22;3866;48.020;11.720;2023-03-31T07:57:55;8.70;99.90
7648;DHT22;3866;48.020;11.720;2023-03-31T08:00:22;8.70;99.90
7648;DHT22;3866;48.020;11.720;2023-03-31T08:02:51;8.60;99.90
7648;DHT22;3866;48.020;11.720;2023-03-31T08:05:19;8.70;99.90
7648;DHT22;3866;48.020;11.720;2023-03-31T08:07:47;8.70;99.90
7648;DHT22;3866;48.020;11.720;2023-03-31T08:10:18;8.80;99.90
7648;DHT22;3866;48.020;11.720;2023-03-31T08:12:45;8.80;99.90
7648;DHT22;3866;48.020;11.720;2023-03-31T08:15:12;9.00;99.90
7648;DHT22;3866;48.020;11.720;2023-03-31T08:17:40;9.00;99.90
7648;DHT22;3866;48.020;11.720;2023-03-31T08:20:09;9.00;99.90
7648;DHT22;3866;48.020;11.720;2023-03-31T08:22:36;8.90;99.90
7648;DHT22;3866;48.020;11.720;2023-03-31T08:25:04;8.90;99.90
7648;DHT22;3866;48.020;11.720;2023-03-31T08:27:33;9.00;99.90
7648;DHT22;3866;48.020;11.720;2023-03-31T08:30:00;8.90;99.90
7648;DHT22;3866;48.020;11.720;2023-03-31T08:32:29;8.90;99.90
7648;DHT22;3866;48.020;11.720;2023-03-31T08:34:56;8.80;99.90
7648;DHT22;3866;48.020;11.720;2023-03-31T08:37:25;8.70;99.90
7648;DHT22;3866;48.020;11.720;2023-03-31T08:39:52;8.70;99.90
7648;DHT22;3866;48.020;11.720;2023-03-31T08:42:21;8.80;99.90
7648;DHT22;3866;48.020;11.720;2023-03-31T08:44:56;8.70;99.90
7648;DHT22;3866;48.020;11.720;2023-03-31T08:47:26;8.90;99.90
7648;DHT22;3866;48.020;11.720;2023-03-31T08:49:58;9.00;99.90
7648;DHT22;3866;48.020;11.720;2023-03-31T08:52:30;9.00;99.90
7648;DHT22;3866;48.020;11.720;2023-03-31T08:55:00;8.90;99.90
7648;DHT22;3866;48.020;11.720;2023-03-31T08:57:32;8.90;99.90
7648;DHT22;3866;48.020;11.720;2023-03-31T09:00:03;9.00;99.90
7648;DHT22;3866;48.020;11.720;2023-03-31T09:02:36;9.10;99.90
7648;DHT22;3866;48.020;11.720;2023-03-31T09:05:21;9.20;99.90
7648;DHT22;3866;48.020;11.720;2023-03-31T09:07:57;9.10;99.90
7648;DHT22;3866;48.020;11.720;2023-03-31T09:10:35;9.20;99.90
7648;DHT22;3866;48.020;11.720;2023-03-31T09:13:13;9.20;99.90
7648;DHT22;3866;48.020;11.720;2023-03-31T09:15:47;9.20;99.90
7648;DHT22;3866;48.020;11.720;2023-03-31T09:18:22;9.20;99.90
7648;DHT22;3866;48.020;11.720;2023-03-31T09:21:01;9.30;99.90
7648;DHT22;3866;48.020;11.720;2023-03-31T09:23:34;9.30;99.90
7648;DHT22;3866;48.020;11.720;2023-03-31T09:26:03;9.40;99.90
7648;DHT22;3866;48.020;11.720;2023-03-31T09:28:35;9.50;99.90
7648;DHT22;3866;48.020;11.720;2023-03-31T09:31:10;9.60;99.90
7648;DHT22;3866;48.020;11.720;2023-03-31T09:33:42;9.70;99.90
7648;DHT22;3866;48.020;11.720;2023-03-31T09:36:14;9.80;99.90
7648;DHT22;3866;48.020;11.720;2023-03-31T09:38:44;9.90;99.90
7648;DHT22;3866;48.020;11.720;2023-03-31T09:41:13;10.00;99.90
7648;DHT22;3866;48.020;11.720;2023-03-31T09:43:41;10.20;99.90
7648;DHT22;3866;48.020;11.720;2023-03-31T09:46:16;10.40;99.90
7648;DHT22;3866;48.020;11.720;2023-03-31T09:48:51;10.90;99.90
7648;DHT22;3866;48.020;11.720;2023-03-31T09:51:24;11.30;99.90
7648;DHT22;3866;48.020;11.720;2023-03-31T09:53:59;11.30;99.90
7648;DHT22;3866;48.020;11.720;2023-03-31T09:56:34;11.10;99.90
7648;DHT22;3866;48.020;11.720;2023-03-31T09:59:14;11.00;99.90
7648;DHT22;3866;48.020;11.720;2023-03-31T10:01:41;11.00;99.90
7648;DHT22;3866;48.020;11.720;2023-03-31T10:04:17;10.90;99.90
7648;DHT22;3866;48.020;11.720;2023-03-31T10:06:45;10.80;99.90
7648;DHT22;3866;48.020;11.720;2023-03-31T10:09:13;10.70;99.90
7648;DHT22;3866;48.020;11.720;2023-03-31T10:11:55;10.70;99.90
7648;DHT22;3866;48.020;11.720;2023-03-31T10:14:31;10.70;99.90
7648;DHT22;3866;48.020;11.720;2023-03-31T10:17:03;10.80;99.90
7648;DHT22;3866;48.020;11.720;2023-03-31T10:19:32;10.90;99.90
7648;DHT22;3866;48.020;11.720;2023-03-31T10:22:01;11.00;99.90
7648;DHT22;3866;48.020;11.720;2023-03-31T10:24:37;11.10;99.90
7648;DHT22;3866;48.020;11.720;2023-03-31T10:27:10;11.20;99.90
7648;DHT22;3866;48.020;11.720;2023-03-31T10:29:39;11.30;99.90
7648;DHT22;3866;48.020;11.720;2023-03-31T10:32:11;11.30;99.90
7648;DHT22;3866;48.020;11.720;2023-03-31T10:34:43;11.30;99.90
7648;DHT22;3866;48.020;11.720;2023-03-31T10:37:15;11.20;99.90
7648;DHT22;3866;48.020;11.720;2023-03-31T10:39:44;11.20;99.90
7648;DHT22;3866;48.020;11.720;2023-03-31T10:42:19;11.30;99.90
7648;DHT22;3866;48.020;11.720;2023-03-31T10:44:46;11.70;99.90
7648;DHT22;3866;48.020;11.720;2023-03-31T10:47:18;11.90;99.90
7648;DHT22;3866;48.020;11.720;2023-03-31T10:49:48;12.10;99.90
7648;DHT22;3866;48.020;11.720;2023-03-31T10:52:19;12.00;99.90
7648;DHT22;3866;48.020;11.720;2023-03-31T10:54:49;12.00;99.90
7648;DHT22;3866;48.020;11.720;2023-03-31T10:57:17;11.90;99.90
7648;DHT22;3866;48.020;11.720;2023-03-31T10:59:55;11.80;99.90
7648;DHT22;3866;48.020;11.720;2023-03-31T11:02:44;11.80;99.90
7648;DHT22;3866;48.020;11.720;2023-03-31T11:05:17;11.80;99.90
7648;DHT22;3866;48.020;11.720;2023-03-31T11:08:00;11.90;99.90
7648;DHT22;3866;48.020;11.720;2023-03-31T11:10:50;12.10;99.90
7648;DHT22;3866;48.020;11.720;2023-03-31T11:13:27;12.00;99.90
7648;DHT22;3866;48.020;11.720;2023-03-31T11:16:06;11.80;99.90
7648;DHT22;3866;48.020;11.720;2023-03-31T11:18:45;11.60;99.90
7648;DHT22;3866;48.020;11.720;2023-03-31T11:21:20;11.60;99.90
7648;DHT22;3866;48.020;11.720;2023-03-31T11:23:55;11.30;99.90
7648;DHT22;3866;48.020;11.720;2023-03-31T11:26:36;11.10;99.90
7648;DHT22;3866;48.020;11.720;2023-03-31T11:29:15;10.70;99.90
7648;DHT22;3866;48.020;11.720;2023-03-31T11:31:49;10.40;99.90
7648;DHT22;3866;48.020;11.720;2023-03-31T11:34:45;10.10;99.90
7648;DHT22;3866;48.020;11.720;2023-03-31T11:37:37;9.80;99.90
7648;DHT22;3866;48.020;11.720;2023-03-31T11:40:20;9.50;99.90
7648;DHT22;3866;48.020;11.720;2023-03-31T11:42:58;8.80;99.90
7648;DHT22;3866;48.020;11.720;2023-03-31T11:45:28;8.50;99.90
7648;DHT22;3866;48.020;11.720;2023-03-31T11:48:00;8.40;99.90
7648;DHT22;3866;48.020;11.720;2023-03-31T11:50:32;8.40;99.90
7648;DHT22;3866;48.020;11.720;2023-03-31T11:53:06;8.30;99.90
7648;DHT22;3866;48.020;11.720;2023-03-31T11:55:38;8.20;99.90
7648;DHT22;3866;48.020;11.720;2023-03-31T11:58:11;8.30;99.90
7648;DHT22;3866;48.020;11.720;2023-03-31T12:00:42;8.40;99.90
7648;DHT22;3866;48.020;11.720;2023-03-31T12:03:12;8.50;99.90
7648;DHT22;3866;48.020;11.720;2023-03-31T12:05:44;8.70;99.90
7648;DHT22;3866;48.020;11.720;2023-03-31T12:08:15;8.90;99.90
7648;DHT22;3866;48.020;11.720;2023-03-31T12:10:44;9.10;99.90
7648;DHT22;3866;48.020;11.720;2023-03-31T12:13:30;9.30;99.90
7648;DHT22;3866;48.020;11.720;2023-03-31T12:16:03;9.70;99.90
7648;DHT22;3866;48.020;11.720;2023-03-31T12:18:33;9.80;99.90
7648;DHT22;3866;48.020;11.720;2023-03-31T12:21:04;9.80;99.90
7648;DHT22;3866;48.020;11.720;2023-03-31T12:23:36;9.80;99.90
7648;DHT22;3866;48.020;11.720;2023-03-31T12:26:08;9.90;99.90
7648;DHT22;3866;48.020;11.720;2023-03-31T12:28:42;9.80;99.90
7648;DHT22;3866;48.020;11.720;2023-03-31T12:31:16;9.90;99.90
7648;DHT22;3866;48.020;11.720;2023-03-31T12:33:47;9.80;99.90
7648;DHT22;3866;48.020;11.720;2023-03-31T12:36:26;9.90;99.90
7648;DHT22;3866;48.020;11.720;2023-03-31T12:39:09;10.00;99.90
7648;DHT22;3866;48.020;11.720;2023-03-31T12:41:44;10.10;99.90
7648;DHT22;3866;48.020;11.720;2023-03-31T12:44:32;10.00;99.90
7648;DHT22;3866;48.020;11.720;2023-03-31T12:47:17;10.00;99.90
7648;DHT22;3866;48.020;11.720;2023-03-31T12:49:58;10.10;99.90
7648;DHT22;3866;48.020;11.720;2023-03-31T12:52:36;10.10;99.90
7648;DHT22;3866;48.020;11.720;2023-03-31T12:55:33;10.10;99.90
7648;DHT22;3866;48.020;11.720;2023-03-31T12:58:42;10.10;99.90
7648;DHT22;3866;48.020;11.720;2023-03-31T13:01:13;10.10;99.90
7648;DHT22;3866;48.020;11.720;2023-03-31T13:03:49;10.10;99.90
7648;DHT22;3866;48.020;11.720;2023-03-31T13:06:49;10.10;99.90
7648;DHT22;3866;48.020;11.720;2023-03-31T13:09:43;10.20;99.90
7648;DHT22;3866;48.020;11.720;2023-03-31T13:12:14;10.30;99.90
7648;DHT22;3866;48.020;11.720;2023-03-31T13:14:44;10.20;99.90
7648;DHT22;3866;48.020;11.720;2023-03-31T13:17:20;10.40;99.90
7648;DHT22;3866;48.020;11.720;2023-03-31T13:19:48;10.70;99.90
7648;DHT22;3866;48.020;11.720;2023-03-31T13:22:30;10.50;99.90
7648;DHT22;3866;48.020;11.720;2023-03-31T13:25:34;10.30;99.90
7648;DHT22;3866;48.020;11.720;2023-03-31T13:28:13;10.10;99.90
7648;DHT22;3866;48.020;11.720;2023-03-31T13:30:49;9.80;99.90
7648;DHT22;3866;48.020;11.720;2023-03-31T13:33:23;9.70;99.90
7648;DHT22;3866;48.020;11.720;2023-03-31T13:35:56;9.50;99.90
7648;DHT22;3866;48.020;11.720;2023-03-31T13:38:34;9.40;99.90
7648;DHT22;3866;48.020;11.720;2023-03-31T13:41:22;9.40;99.90
7648;DHT22;3866;48.020;11.720;2023-03-31T13:44:27;9.30;99.90
7648;DHT22;3866;48.020;11.720;2023-03-31T13:47:16;9.30;99.90
7648;DHT22;3866;48.020;11.720;2023-03-31T13:50:09;9.20;99.90
7648;DHT22;3866;48.020;11.720;2023-03-31T13:52:49;9.30;99.90
7648;DHT22;3866;48.020;11.720;2023-03-31T13:55:46;9.50;99.90
7648;DHT22;3866;48.020;11.720;2023-03-31T14:04:38;9.70;99.90
7648;DHT22;3866;48.020;11.720;2023-03-31T14:07:14;9.60;99.90
7648;DHT22;3866;48.020;11.720;2023-03-31T14:09:43;9.60;99.90
7648;DHT22;3866;48.020;11.720;2023-03-31T14:12:31;9.60;99.90
7648;DHT22;3866;48.020;11.720;2023-03-31T14:14:59;9.70;99.90
7648;DHT22;3866;48.020;11.720;2023-03-31T14:17:27;9.70;99.90
7648;DHT22;3866;48.020;11.720;2023-03-31T14:20:12;9.60;99.90
7648;DHT22;3866;48.020;11.720;2023-03-31T14:22:49;9.60;99.90
7648;DHT22;3866;48.020;11.720;2023-03-31T14:25:26;9.70;99.90
7648;DHT22;3866;48.020;11.720;2023-03-31T14:28:06;9.80;99.90
7648;DHT22;3866;48.020;11.720;2023-03-31T14:30:42;9.90;99.90
7648;DHT22;3866;48.020;11.720;2023-03-31T14:33:24;10.00;99.90
7648;DHT22;3866;48.020;11.720;2023-03-31T14:35:56;10.10;99.90
7648;DHT22;3866;48.020;11.720;2023-03-31T14:38:29;10.30;99.90
7648;DHT22;3866;48.020;11.720;2023-03-31T14:40:56;10.40;99.90
7648;DHT22;3866;48.020;11.720;2023-03-31T14:43:28;10.60;99.90
7648;DHT22;3866;48.020;11.720;2023-03-31T14:45:58;10.70;99.90
7648;DHT22;3866;48.020;11.720;2023-03-31T14:48:27;10.60;99.90
7648;DHT22;3866;48.020;11.720;2023-03-31T14:50:57;10.60;99.90
7648;DHT22;3866;48.020;11.720;2023-03-31T14:53:25;10.30;99.90
7648;DHT22;3866;48.020;11.720;2023-03-31T14:56:00;9.90;99.90
7648;DHT22;3866;48.020;11.720;2023-03-31T14:58:30;9.70;99.90
7648;DHT22;3866;48.020;11.720;2023-03-31T15:01:00;9.50;99.90
7648;DHT22;3866;48.020;11.720;2023-03-31T15:03:28;9.50;99.90
7648;DHT22;3866;48.020;11.720;2023-03-31T15:05:57;9.50;99.90
7648;DHT22;3866;48.020;11.720;2023-03-31T15:08:25;9.50;99.90
7648;DHT22;3866;48.020;11.720;2023-03-31T15:10:58;9.90;99.90
7648;DHT22;3866;48.020;11.720;2023-03-31T15:13:31;10.40;99.90
7648;DHT22;3866;48.020;11.720;2023-03-31T15:15:59;10.50;99.90
7648;DHT22;3866;48.020;11.720;2023-03-31T15:18:26;10.50;99.90
7648;DHT22;3866;48.020;11.720;2023-03-31T15:20:53;10.60;99.90
7648;DHT22;3866;48.020;11.720;2023-03-31T15:23:22;10.90;99.90
7648;DHT22;3866;48.020;11.720;2023-03-31T15:25:53;11.20;99.90
7648;DHT22;3866;48.020;11.720;2023-03-31T15:28:23;11.10;99.90
7648;DHT22;3866;48.020;11.720;2023-03-31T15:30:51;11.30;99.90
7648;DHT22;3866;48.020;11.720;2023-03-31T15:33:21;11.10;99.90
7648;DHT22;3866;48.020;11.720;2023-03-31T15:35:52;11.10;99.90
7648;DHT22;3866;48.020;11.720;2023-03-31T15:38:19;11.20;99.90
7648;DHT22;3866;48.020;11.720;2023-03-31T15:40:50;11.10;99.90
7648;DHT22;3866;48.020;11.720;2023-03-31T15:43:28;11.10;99.90
7648;DHT22;3866;48.020;11.720;2023-03-31T15:45:57;11.10;99.90
7648;DHT22;3866;48.020;11.720;2023-03-31T15:48:28;10.90;99.90
7648;DHT22;3866;48.020;11.720;2023-03-31T15:51:04;10.90;99.90
7648;DHT22;3866;48.020;11.720;2023-03-31T15:53:35;10.90;99.90
7648;DHT22;3866;48.020;11.720;2023-03-31T15:56:03;10.90;99.90
7648;DHT22;3866;48.020;11.720;2023-03-31T15:58:55;10.80;99.90
7648;DHT22;3866;48.020;11.720;2023-03-31T16:01:26;10.80;99.90
7648;DHT22;3866;48.020;11.720;2023-03-31T16:03:57;10.90;99.90
7648;DHT22;3866;48.020;11.720;2023-03-31T16:06:36;10.90;99.90
7648;DHT22;3866;48.020;11.720;2023-03-31T16:09:07;11.00;99.90
7648;DHT22;3866;48.020;11.720;2023-03-31T16:11:39;11.10;99.90
7648;DHT22;3866;48.020;11.720;2023-03-31T16:14:12;11.20;99.90
7648;DHT22;3866;48.020;11.720;2023-03-31T16:16:45;11.10;99.90
7648;DHT22;3866;48.020;11.720;2023-03-31T16:19:13;11.10;99.90
7648;DHT22;3866;48.020;11.720;2023-03-31T16:21:43;10.90;99.90
7648;DHT22;3866;48.020;11.720;2023-03-31T16:24:12;10.80;99.90
7648;DHT22;3866;48.020;11.720;2023-03-31T16:26:40;10.60;99.90
7648;DHT22;3866;48.020;11.720;2023-03-31T16:29:08;10.60;99.90
7648;DHT22;3866;48.020;11.720;2023-03-31T16:31:45;10.50;99.90
7648;DHT22;3866;48.020;11.720;2023-03-31T16:34:12;10.30;99.90
7648;DHT22;3866;48.020;11.720;2023-03-31T16:36:39;10.30;99.90